• Join FlightAware (Why Join?)
  • Login
  • US Flag 
07:21PM EDT


 

Airport Tracker/Info


-or-


 

Live Flight TrackerFlight Track Log ✈ SWA1366 ✈ 01-Dec-2013 ✈ KMCO - KBWI

Flight Track Log - Related Links

Times and Time Zones

All times are in EST time to prevent confusion due to time zone crossing. See the SWA1366 flight status page for this flight to view local times or setup timezone preferences in your user account.

Time Position Orientation Groundspeed Altitude Reporting Facility
EST Latitude Longitude Course Direction KTS MPH feet Rate Location/Type
10:16AM 28.4333 -81.3000 24° Northeast 149 171 600  Level Orlando TRACON
10:17AM 28.4667 -81.2833 24° Northeast 175 201 2,400 2,100 Climbing Orlando TRACON
10:18AM 28.5333 -81.2500 24° Northeast 228 262 4,700 2,400 Climbing Orlando TRACON
10:19AM 28.6000 -81.2333 12° North 282 325 7,200 2,640 Climbing Orlando TRACON
10:21AM 28.7556 -81.2894 342° North 315 362 12,400 3,000 Climbing Jacksonville Center
10:22AM 28.8583 -81.3208 345° North 348 400 16,100 3,300 Climbing Jacksonville Center
10:23AM 28.9608 -81.3500 346° North 370 426 19,000 2,700 Climbing Jacksonville Center
10:24AM 29.0675 -81.3792 347° North 382 440 21,600 1,980 Climbing Jacksonville Center
10:25AM 29.1786 -81.4014 350° North 400 460 23,000 1,620 Climbing Jacksonville Center
10:26AM 29.2956 -81.4067 358° North 410 472 24,900 2,040 Climbing Jacksonville Center
10:27AM 29.4083 -81.4194 354° North 415 478 27,100 2,040 Climbing Jacksonville Center
10:28AM 29.5128 -81.4322 354° North 415 478 29,000 2,220 Climbing Jacksonville Center
10:29AM 29.6278 -81.4375 358° North 410 472 31,600 2,400 Climbing Jacksonville Center
10:30AM 29.7406 -81.4383 360° North 405 466 33,900 2,220 Climbing Jacksonville Center
10:31AM 29.8511 -81.4389 360° North 405 466 36,100 1,920 Climbing Jacksonville Center
10:32AM 29.9533 -81.4375 North 387 445 37,800 1,440 Climbing Jacksonville Center
10:33AM 30.0558 -81.4383 360° North 375 432 39,000 600 Climbing Jacksonville Center
10:34AM 30.1558 -81.4367 North 362 417 39,000  Level Jacksonville Center
10:35AM 30.2603 -81.4353 North 362 417 39,000  Level Jacksonville Center
10:36AM 30.3625 -81.4336 North 362 417 39,000  Level Jacksonville Center
10:37AM 30.4669 -81.4369 358° North 362 417 39,000  Level Jacksonville Center
10:38AM 30.5672 -81.4378 360° North 362 417 39,000  Level Jacksonville Center
10:39AM 30.6694 -81.4361 North 362 417 39,000  Level Jacksonville Center
10:40AM 30.7739 -81.4369 360° North 362 417 39,000  Level Jacksonville Center
10:41AM 30.8719 -81.4381 359° North 362 417 39,000  Level Jacksonville Center
10:42AM 30.9722 -81.4364 North 362 417 39,000  Level Jacksonville Center
10:43AM 31.0744 -81.4372 360° North 362 417 39,000  Level Jacksonville Center
10:44AM 31.1853 -81.4381 360° North 362 417 39,000  Level Jacksonville Center
10:45AM 31.2875 -81.4267 North 355 409 39,000  Level Jacksonville Center
10:46AM 31.3872 -81.4008 12° North 371 427 39,000  Level Jacksonville Center
10:47AM 31.4808 -81.3675 17° North 371 427 39,000  Level Jacksonville Center
10:48AM 31.5842 -81.2856 34° Northeast 395 455 39,000  Level Jacksonville Center
10:49AM 31.6814 -81.2081 34° Northeast 414 476 39,000  Level Jacksonville Center
10:50AM 31.7639 -81.1381 36° Northeast 420 483 39,000  Level Jacksonville Center
10:51AM 31.8714 -81.0506 35° Northeast 420 483 39,000  Level Jacksonville Center
10:52AM 31.9578 -80.9778 36° Northeast 420 483 39,000  Level Jacksonville Center
10:53AM 32.0672 -80.8922 34° Northeast 420 483 39,000  Level Jacksonville Center
10:54AM 32.1642 -80.8114 35° Northeast 420 483 39,000  Level Jacksonville Center
10:55AM 32.2525 -80.7381 35° Northeast 420 483 39,000  Level Jacksonville Center
10:56AM 32.3514 -80.6572 35° Northeast 420 483 39,000  Level Jacksonville Center
10:57AM 32.4481 -80.5761 35° Northeast 420 483 39,000  Level Jacksonville Center
10:58AM 32.5489 -80.4922 35° Northeast 420 483 39,000  Level Jacksonville Center
10:59AM 32.6597 -80.4003 35° Northeast 428 493 39,000  Level Jacksonville Center
11:00AM 32.7603 -80.3186 34° Northeast 434 499 39,000  Level Jacksonville Center
11:01AM 32.8567 -80.2342 36° Northeast 434 499 39,000  Level Jacksonville Center
11:02AM 32.9614 -80.1469 35° Northeast 441 507 39,000  Level Jacksonville Center
11:03AM 33.0617 -80.0619 35° Northeast 446 513 39,000  Level Jacksonville Center
11:04AM 33.1661 -79.9744 35° Northeast 446 513 39,000  Level Jacksonville Center
11:05AM 33.2664 -79.8892 35° Northeast 446 513 39,000  Level Jacksonville Center
11:06AM 33.3706 -79.7986 36° Northeast 446 513 39,000  Level Jacksonville Center
11:07AM 33.4750 -79.7128 34° Northeast 446 513 39,000  Level Jacksonville Center
11:08AM 33.5769 -79.6244 36° Northeast 446 513 39,000  Level Jacksonville Center
11:09AM 33.6792 -79.5358 36° Northeast 446 513 39,000  Level Jacksonville Center
11:10AM 33.7831 -79.4444 36° Northeast 446 513 39,000  Level Jacksonville Center
11:12AM 33.9944 -79.2611 36° Northeast 449 517 39,000  Level Washington Center
11:13AM 34.0994 -79.1731 35° Northeast 454 522 39,000  Level Washington Center
11:14AM 34.2042 -79.0847 35° Northeast 454 522 39,000  Level Washington Center
11:15AM 34.3069 -78.9961 35° Northeast 461 531 39,000  Level Washington Center
11:16AM 34.4156 -78.9175 31° Northeast 456 525 39,000  Level Washington Center
11:17AM 34.5244 -78.8311 33° Northeast 451 519 39,000  Level Washington Center
11:18AM 34.6222 -78.7644 29° Northeast 451 519 39,000  Level Washington Center
11:19AM 34.7489 -78.7036 22° Northeast 441 507 39,000  Level Washington Center
11:20AM 34.8503 -78.6569 21° North 441 507 39,000  Level Washington Center
11:21AM 34.9644 -78.6003 22° Northeast 441 507 39,000  Level Washington Center
11:22AM 35.0892 -78.5389 22° Northeast 441 507 39,000  Level Washington Center
11:23AM 35.2031 -78.4822 22° Northeast 441 507 39,000  Level Washington Center
11:24AM 35.3192 -78.4253 22° Northeast 441 507 39,000 -240 Level Washington Center
11:25AM 35.4333 -78.3631 24° Northeast 441 507 38,600 -660 Descending Washington Center
11:26AM 35.5536 -78.3083 20° North 441 507 37,700 -960 Descending Washington Center
11:27AM 35.6694 -78.2536 21° North 441 507 36,700 -1,680 Descending Washington Center
11:28AM 35.7856 -78.1961 22° Northeast 441 507 34,500 -1,620 Descending Washington Center
11:29AM 35.9017 -78.1383 22° Northeast 441 507 33,600 -960 Descending Washington Center
11:30AM 36.0217 -78.0781 22° Northeast 441 507 32,600 -960 Descending Washington Center
11:31AM 36.1397 -78.0200 22° Northeast 447 514 31,700 -840 Descending Washington Center
11:32AM 36.2619 -77.9594 22° Northeast 454 522 31,000 -900 Descending Washington Center
11:33AM 36.3800 -77.9011 22° Northeast 454 522 30,000 -1,020 Descending Washington Center
11:34AM 36.4917 -77.8397 24° Northeast 449 517 29,000 -900 Descending Washington Center
11:35AM 36.6056 -77.7861 21° North 437 503 28,300 -900 Descending Washington Center
11:36AM 36.7150 -77.7269 23° Northeast 437 503 27,300 -660 Descending Washington Center
11:37AM 36.8158 -77.6883 17° North 432 497 27,000 -180 Descending Washington Center
11:38AM 36.9292 -77.6472 16° North 425 489 27,000  Level Washington Center
11:39AM 37.0403 -77.6111 15° North 420 483 27,000  Level Washington Center
11:40AM 37.1536 -77.5722 15° North 420 483 27,000  Level Washington Center
11:41AM 37.2775 -77.5286 16° North 420 483 27,000 -120 Level Washington Center
11:42AM 37.3908 -77.4869 16° North 420 483 26,800 -1,200 Descending Washington Center
11:43AM 37.4997 -77.4503 15° North 420 483 24,700 -1,920 Descending Washington Center
11:44AM 37.6047 -77.4111 16° North 415 478 23,000 -900 Descending Washington Center
11:45AM 37.7117 -77.3742 15° North 401 461 23,000  Level Washington Center
11:46AM 37.8186 -77.3372 15° North 396 456 23,000  Level Washington Center
11:47AM 37.9253 -77.3003 15° North 396 456 23,000 -420 Level Washington Center
11:48AM 38.0303 -77.2606 17° North 396 456 22,200 -1,500 Descending Washington Center
11:49AM 38.1286 -77.2311 13° North 383 441 20,100 -2,040 Descending Washington Center
11:50AM 38.2272 -77.1961 16° North 370 426 18,200 -1,980 Descending Washington Center
11:51AM 38.3214 -77.1583 17° North 360 414 16,200 -1,740 Descending Washington Center
11:52AM 38.3975 -77.0753 41° Northeast 344 396 14,800 -1,380 Descending Washington Center
11:53AM 38.4675 -76.9811 46° Northeast 344 396 13,500 -1,500 Descending Washington Center
11:54AM 38.5331 -76.8947 46° Northeast 344 396 11,900 -1,620 Descending Washington Center
11:55AM 38.5967 -76.8083 47° Northeast 332 382 10,400 -1,140 Descending Washington Center
11:56AM 38.6517 -76.7267 49° Northeast 317 365 9,700 -1,200 Descending Washington Center
11:58AM 38.7500 -76.5833 49° Northeast 284 327 7,100 -1,380 Descending Potomac TRACON
11:59AM 38.8167 -76.5333 30° Northeast 276 318 6,000 -1,080 Descending Potomac TRACON
12:00PM 38.8667 -76.5333 360° North 257 296 5,100 -1,080 Descending Potomac TRACON
12:01PM 38.9500 -76.5667 343° North 254 292 3,900 -1,080 Descending Potomac TRACON
12:02PM 39.0167 -76.5833 349° North 246 283 3,000 -840 Descending Potomac TRACON
12:03PM 39.0667 -76.6000 345° North 220 253 2,400 -780 Descending Potomac TRACON
12:04PM 39.1167 -76.6167 346° North 167 192 1,500 -1,020 Descending Potomac TRACON
12:05PM 39.1500 -76.6500 322° Northwest 138 159 400 -1,140 Descending Potomac TRACON
12:07PM 39.1667 -76.6667 339° North  Level FlightAware Approximate